Yellow Pine, Alabama
Current Conditions -  °F | °C
As of 9:56 AM on Friday 24 Oct 2014 (Local Time) from KMOB Reporting Station
Few Clouds Few Clouds  
Wind Chill: 65°   Ceiling: Unl
Heat Index: 65°   Visibility: 10mi
Dew Point: 50°   Wind: 0mph
Humidity: 58%   Direction: NA
Pressure: 30.11"   Gusts: NA
Location:  31.3356°N, 88.3227°W
Report Text: KMOB 241456Z 00000KT 10SM FEW060 FEW150 18/10 A3011 RMK AO2 SLP194 T01830100 51008
Loading
Personal Weather Stations






























Interactive Weather Map
Tropical Storm Tracking
New forecast layout! Learn more

10-Day Weather Forecast

Advertisements
Track Severe Weather on mobile